ADDS METAR Data INFO
IDs: Format: Raw Decoded Include TAF

Data at: 0949 UTC 25 Jun 2018

PHKO 250853Z AUTO 11005KT 10SM BKN046 BKN055 OVC075 27/20 A3000 RMK AO2 SLP160 T02670200 51010 TSNO
PHKO 250753Z 11009KT 10SM CLR 27/20 A2999 RMK AO2 SLP157 T02670200
PHKO 250653Z VRB03KT 10SM SCT041 OVC050 27/17 A2998 RMK AO2 SLP153 T02670172
PHKO 250553Z COR 14007KT 10SM SCT040 BKN050 27/19 A2997 RMK AO2 SLP150 T02720194 10300 20272 53012
PHKO 250453Z COR 18007G17KT 10SM BKN047 28/23 A2996
PHKO 250353Z COR 25007KT 10SM BKN047 BKN090 29/22 A2995
PHKO 250253Z 20008KT 10SM SCT050 BKN070 29/19 A2994 RMK AO2 SLP139 T02890194 55011
PHKO 250153Z 22012KT 10SM SCT060 BKN080 30/19 A2994 RMK AO2 SLP138 T03000189
PHKO 250053Z 22007KT 10SM BKN060 BKN070 OVC085 29/20 A2996 RMK AO2 SLP146 T02890200
PHKO 242353Z 25008KT 10SM SCT049 BKN090 29/20 A2997 RMK AO2 SLP150 T02890200 10300 20267 56013
PHKO 242253Z 24009KT 10SM SCT040 SCT065 29/19 A2998 RMK AO2 SLP153 T02890194
PHKO 242153Z 24009KT 10SM SCT085 29/20 A3000 RMK AO2 SLP158 T02890200
PHKO 242053Z 21008KT 10SM FEW040 SCT060 29/18 A3001 RMK AO2 SLP163 T02890183 50004
PHKO 241953Z 25005KT 10SM SCT045 27/19 A3001 RMK AO2 SLP163 T02720189
PHKO 241853Z 23006KT 10SM SCT045 27/19 A3001 RMK AO2 SLP161 T02670194
PHKO 241753Z 14005KT 10SM FEW030 27/19 A3000 RMK AO2 SLP158 6//// T02670189 10267 20239 53011
PHKO 241653Z 12003KT 10SM SCT030 26/16 A2999 RMK AO2 SLP155 T02560161
PHKO 241553Z 00000KT 10SM SCT035 25/17 A2997 RMK AO2 SLP150 T02500167
PHKO 241544Z 00000KT 10SM CLR 24/16 A2997 RMK AO2 T02440161
PHKO 241537Z 07003KT 10SM BKN025 24/16 A2997 RMK AO2 T02440161
PHKO 241453Z AUTO 09004KT 10SM BKN037 26/17 A2997 RMK AO2 SLP147 6//// T02560172 TSNO
PHKO 240853Z AUTO 20003KT 10SM CLR 26/18 A3002 RMK AO2 SLP165 T02610178 51013 TSNO
PHKO 240753Z 00000KT 10SM SCT080 27/18 A3001 RMK AO2 SLP162 T02670178
PHKO 240653Z 05008KT 10SM FEW039 FEW048 27/17 A3000 RMK AO2 SLP159 T02670167
PHKO 240553Z 05013KT 10SM SCT022 SCT037 BKN085 27/17 A2998 RMK AO2 SLP153 T02720172 10306 20272 51016
PHKO 240453Z COR 17008KT 10SM SCT025 SCT045 BKN085 28/19 A2997 RMK AO2 SLP148 T02780194
PHKO 240421Z 20009KT 10SM FEW025 SCT045 28/19 A2996 RMK AO2 T02830194
PHKO 240401Z 19008KT 10SM BKN013 OVC043 28/20 A2995 RMK AO2 T02780200
PHKO 240353Z 20010KT 10SM FEW035 SCT055 SCT075 28/19 A2995 RMK AO2 SLP142 T02830194
PHKO 240329Z 19010KT 10SM SCT035 SCT055 SCT075 29/20 A2994 RMK AO2 T02890200
PHKO 240311Z 19010KT 10SM BKN014 BKN048 OVC090 29/20 A2994 RMK AO2 T02940200
PHKO 240253Z 21012KT 9SM SCT014 BKN090 29/20 A2993 RMK AO2 SLP137 T02940200 56006
PHKO 240153Z 19011KT 10SM SCT045 SCT060 30/20 A2994 RMK AO2 SLP139 T03000200
PHKO 240143Z 19011KT 10SM SCT045 SCT060 29/20 A2994 RMK AO2 T02940200
PHKO 240100Z 21013KT 10SM OVC012 31/20 A2994 RMK AO2 T03060200
PHKO 240053Z 21013KT 10SM FEW020 SCT045 30/20 A2995 RMK AO2 SLP141 T03000200
PHKO 240018Z 23012KT 10SM FEW020 SCT045 30/20 A2995 RMK AO2 T03000200
PHKO 240000Z 23012KT 10SM OVC013 30/19 A2995 RMK AO2 T03000194
PHKO 232353Z 24011KT 10SM SCT050 29/20 A2995 RMK AO2 SLP143 T02940200 10306 20272 57013
PHKO 232253Z 25010KT 10SM SCT050 29/21 A2997 RMK AO2 SLP147 T02940206
PHKO 232153Z 25010KT 10SM SCT050 29/19 A2998 RMK AO2 SLP151 T02940189